Time;durP1;ratioP1;P1;durP2;ratioP2;P2;SDS_P1;SDS_P2;PMS_P1;PMS_P2;Temp;Humidity;BMP_temperature;BMP_pressure;BME280_temperature;BME280_humidity;BME280_pressure;Samples;Min_cycle;Max_cycle;Signal;HPM_P1;HPM_P2
2023/04/13 00:00:45;;;;;;;4.13;3.10;;;7.10;99.90;;;;;;5091216;28;20443;-75
2023/04/13 00:03:11;;;;;;;4.20;3.50;;;7.00;99.90;;;;;;5077338;28;20444;-75
2023/04/13 00:05:38;;;;;;;4.63;3.27;;;7.10;99.90;;;;;;5075664;28;20942;-75
2023/04/13 00:08:04;;;;;;;3.80;3.50;;;7.00;99.90;;;;;;5066979;28;20424;-76
2023/04/13 00:10:35;;;;;;;3.60;3.40;;;7.10;99.90;;;;;;5095745;28;20439;-75
2023/04/13 00:13:01;;;;;;;4.90;4.43;;;7.00;99.90;;;;;;5083745;28;20544;-75
2023/04/13 00:15:27;;;;;;;4.97;4.57;;;6.90;99.90;;;;;;5076218;28;20439;-76
2023/04/13 00:17:53;;;;;;;4.37;3.63;;;6.80;99.90;;;;;;5058878;28;21032;-75
2023/04/13 00:20:19;;;;;;;10.80;7.30;;;6.80;99.90;;;;;;5057459;28;20412;-75
2023/04/13 00:22:46;;;;;;;7.50;5.87;;;6.70;99.90;;;;;;5075783;28;20183;-75
2023/04/13 00:25:13;;;;;;;6.50;5.90;;;6.70;99.90;;;;;;5088551;28;20176;-75
2023/04/13 00:27:41;;;;;;;9.90;6.60;;;6.70;99.90;;;;;;5096298;28;20797;-75
2023/04/13 00:30:16;;;;;;;8.83;7.33;;;6.60;99.90;;;;;;5095349;28;20751;-76
2023/04/13 00:32:44;;;;;;;13.37;7.57;;;6.60;99.90;;;;;;5094283;28;20417;-75
2023/04/13 00:35:14;;;;;;;10.23;8.90;;;6.70;99.90;;;;;;5057890;28;20889;-75
2023/04/13 00:37:41;;;;;;;11.07;8.60;;;6.70;99.90;;;;;;5085858;28;20422;-75
2023/04/13 00:40:09;;;;;;;10.47;8.03;;;6.70;99.90;;;;;;5079280;28;21254;-74
2023/04/13 00:42:35;;;;;;;10.40;8.80;;;6.70;99.90;;;;;;5093623;28;20479;-76
2023/04/13 00:45:01;;;;;;;11.33;8.17;;;6.70;99.90;;;;;;5088824;28;20459;-75
2023/04/13 00:47:29;;;;;;;9.83;7.30;;;6.70;99.90;;;;;;5080304;28;20231;-75
2023/04/13 00:49:56;;;;;;;12.70;8.80;;;6.60;99.90;;;;;;5076781;28;20406;-75
2023/04/13 00:52:22;;;;;;;10.33;8.80;;;6.60;99.90;;;;;;5095107;28;20422;-75
2023/04/13 00:54:50;;;;;;;13.90;9.10;;;6.60;99.90;;;;;;5094922;28;20542;-75
2023/04/13 00:57:17;;;;;;;10.80;8.97;;;6.60;99.90;;;;;;5095304;28;20477;-75
2023/04/13 00:59:44;;;;;;;13.03;9.60;;;6.50;99.90;;;;;;5075785;28;20428;-75
2023/04/13 01:02:09;;;;;;;10.30;9.07;;;6.50;99.90;;;;;;5074970;28;20439;-75
2023/04/13 01:04:36;;;;;;;13.10;9.27;;;6.50;99.90;;;;;;5074788;28;20502;-75
2023/04/13 01:07:23;;;;;;;12.93;9.67;;;6.50;99.90;;;;;;5065206;28;20969;-76
2023/04/13 01:10:27;;;;;;;12.20;9.10;;;6.50;99.90;;;;;;5078275;28;20436;-76
2023/04/13 01:13:29;;;;;;;12.23;9.20;;;6.40;99.90;;;;;;5075113;28;20420;-75
2023/04/13 01:16:02;;;;;;;12.90;10.00;;;6.40;99.90;;;;;;5072945;28;20458;-75
2023/04/13 01:18:32;;;;;;;13.47;10.43;;;6.30;99.90;;;;;;5095265;28;20791;-75
2023/04/13 01:20:59;;;;;;;13.53;9.37;;;6.30;99.90;;;;;;5073792;28;20428;-75
2023/04/13 01:23:30;;;;;;;14.73;10.90;;;6.30;99.90;;;;;;5077949;28;20481;-75
2023/04/13 01:26:00;;;;;;;11.80;10.50;;;6.30;99.90;;;;;;5088265;28;20450;-75
2023/04/13 01:28:27;;;;;;;18.00;9.83;;;6.20;99.90;;;;;;5094980;28;20454;-75
2023/04/13 01:30:54;;;;;;;16.60;10.40;;;6.20;99.90;;;;;;5093130;28;20427;-75
2023/04/13 01:33:20;;;;;;;18.70;11.50;;;6.20;99.90;;;;;;5094747;28;20407;-75
2023/04/13 01:35:48;;;;;;;19.90;11.20;;;6.10;99.90;;;;;;5077769;28;20968;-76
2023/04/13 01:38:13;;;;;;;15.27;10.63;;;6.10;99.90;;;;;;5077804;28;20430;-75
2023/04/13 01:40:40;;;;;;;17.63;10.97;;;6.10;99.90;;;;;;5067691;28;20429;-75
2023/04/13 01:43:07;;;;;;;13.60;11.50;;;6.10;99.90;;;;;;5077631;28;20194;-75
2023/04/13 01:45:45;;;;;;;21.93;13.10;;;6.10;99.90;;;;;;5079467;28;21006;-75
2023/04/13 01:48:18;;;;;;;25.33;12.47;;;6.00;99.90;;;;;;5072266;28;20415;-75
2023/04/13 01:50:50;;;;;;;14.50;11.03;;;6.10;99.90;;;;;;5092424;28;20431;-75
2023/04/13 01:53:28;;;;;;;19.33;11.00;;;6.10;99.90;;;;;;5094607;28;20415;-75
2023/04/13 01:55:55;;;;;;;17.00;11.90;;;6.10;99.90;;;;;;5074159;28;20451;-74
2023/04/13 01:58:26;;;;;;;15.20;10.23;;;6.00;99.90;;;;;;5074361;28;20881;-75
2023/04/13 02:00:54;;;;;;;15.37;11.17;;;5.90;99.90;;;;;;5073752;28;20435;-75
2023/04/13 02:03:21;;;;;;;19.97;10.40;;;5.90;99.90;;;;;;5077915;28;20428;-75
2023/04/13 02:05:47;;;;;;;13.90;9.87;;;5.80;99.90;;;;;;5076819;28;20419;-76
2023/04/13 02:08:14;;;;;;;20.87;9.40;;;5.80;99.90;;;;;;5082251;28;20929;-75
2023/04/13 02:10:41;;;;;;;17.07;10.23;;;5.70;99.90;;;;;;5072914;28;20852;-75
2023/04/13 02:13:08;;;;;;;20.03;10.83;;;5.60;99.90;;;;;;5092882;28;20780;-74
2023/04/13 02:15:36;;;;;;;16.40;10.90;;;5.60;99.90;;;;;;5085078;28;20448;-75
2023/04/13 02:18:03;;;;;;;11.80;9.40;;;5.60;99.90;;;;;;5074134;28;20405;-75
2023/04/13 02:20:32;;;;;;;13.27;8.33;;;5.50;99.90;;;;;;5073098;28;20919;-75
2023/04/13 02:22:59;;;;;;;12.23;8.43;;;5.50;99.90;;;;;;5073732;28;20482;-75
2023/04/13 02:25:26;;;;;;;14.70;9.37;;;5.50;99.90;;;;;;5093890;28;20384;-75
2023/04/13 02:27:52;;;;;;;17.90;7.70;;;5.40;99.90;;;;;;5093590;28;20413;-75
2023/04/13 02:30:18;;;;;;;14.13;8.80;;;5.40;99.90;;;;;;5092800;28;20403;-75
2023/04/13 02:32:48;;;;;;;10.47;7.70;;;5.40;99.90;;;;;;5083551;28;20436;-75
2023/04/13 02:35:14;;;;;;;10.30;7.10;;;5.40;99.90;;;;;;5055522;28;20813;-75
2023/04/13 02:37:40;;;;;;;11.73;8.00;;;5.50;99.90;;;;;;5073645;28;20893;-75
2023/04/13 02:40:08;;;;;;;9.97;7.43;;;5.40;99.90;;;;;;5073512;28;20399;-76
2023/04/13 02:42:35;;;;;;;10.07;6.80;;;5.40;99.90;;;;;;5080117;28;20444;-74
2023/04/13 02:45:01;;;;;;;10.43;7.97;;;5.40;99.90;;;;;;5076299;28;20523;-75
2023/04/13 02:47:27;;;;;;;10.17;7.40;;;5.30;99.90;;;;;;5072528;28;20439;-75
2023/04/13 02:49:53;;;;;;;18.13;8.23;;;5.30;99.90;;;;;;5080691;28;20480;-76
2023/04/13 02:52:20;;;;;;;8.90;7.37;;;5.30;99.90;;;;;;5082545;28;20204;-74
2023/04/13 02:54:46;;;;;;;15.00;7.63;;;5.30;99.90;;;;;;5092762;28;20287;-75
2023/04/13 02:57:12;;;;;;;12.67;8.10;;;5.30;99.90;;;;;;5091653;28;20427;-74
2023/04/13 02:59:40;;;;;;;15.33;9.20;;;5.20;99.90;;;;;;5077209;28;20173;-74
2023/04/13 03:02:07;;;;;;;10.93;8.43;;;5.20;99.90;;;;;;5087352;28;20522;-75
2023/04/13 03:04:33;;;;;;;14.33;7.93;;;5.20;99.90;;;;;;5080254;28;20424;-75
2023/04/13 03:06:59;;;;;;;11.50;7.90;;;5.20;99.90;;;;;;5081019;28;20796;-75
2023/04/13 03:09:25;;;;;;;15.60;8.53;;;5.20;99.90;;;;;;5087264;28;20241;-75
2023/04/13 03:11:51;;;;;;;14.73;7.73;;;5.20;99.90;;;;;;5089164;28;20558;-74
2023/04/13 03:14:20;;;;;;;13.93;8.90;;;5.10;99.90;;;;;;5072418;28;20820;-75
2023/04/13 03:16:46;;;;;;;14.73;8.13;;;5.10;99.90;;;;;;5073096;28;20479;-76
2023/04/13 03:19:12;;;;;;;12.93;8.00;;;5.20;99.90;;;;;;5084042;28;20434;-74
2023/04/13 03:21:38;;;;;;;13.23;8.70;;;5.10;99.90;;;;;;5090686;28;20547;-74
2023/04/13 03:24:04;;;;;;;16.93;8.73;;;5.10;99.90;;;;;;5092330;28;20184;-74
2023/04/13 03:26:29;;;;;;;12.67;8.40;;;5.10;99.90;;;;;;5091417;28;20193;-75
2023/04/13 03:28:55;;;;;;;12.70;9.10;;;5.10;99.90;;;;;;5091161;28;20429;-76
2023/04/13 03:31:21;;;;;;;16.43;8.70;;;5.00;99.90;;;;;;5092393;28;20176;-75
2023/04/13 03:33:47;;;;;;;18.50;9.27;;;5.00;99.90;;;;;;5072450;28;20199;-75
2023/04/13 03:36:13;;;;;;;16.40;11.20;;;5.00;99.90;;;;;;5078074;28;20210;-75
2023/04/13 03:38:38;;;;;;;16.30;10.80;;;4.90;99.90;;;;;;5092049;28;20649;-75
2023/04/13 03:41:04;;;;;;;17.30;10.60;;;4.90;99.90;;;;;;5095343;28;20522;-75
2023/04/13 03:43:30;;;;;;;18.60;11.87;;;4.90;99.90;;;;;;5059271;28;20250;-74
2023/04/13 03:45:56;;;;;;;13.17;10.40;;;4.90;99.90;;;;;;5083295;28;20434;-75
2023/04/13 03:48:21;;;;;;;16.80;10.07;;;4.80;99.90;;;;;;5097158;28;20172;-75
2023/04/13 03:50:47;;;;;;;20.57;11.90;;;4.80;99.90;;;;;;5095161;28;20635;-74
2023/04/13 03:53:13;;;;;;;16.80;11.67;;;4.80;99.90;;;;;;5096886;28;20245;-75
2023/04/13 03:55:39;;;;;;;21.90;11.43;;;4.80;99.90;;;;;;5093922;28;20208;-75
2023/04/13 03:58:04;;;;;;;27.13;13.67;;;4.80;99.90;;;;;;5075712;28;20645;-75
2023/04/13 04:00:30;;;;;;;18.53;12.40;;;4.80;99.90;;;;;;5076531;28;20174;-72
2023/04/13 04:02:56;;;;;;;19.93;12.87;;;4.80;99.90;;;;;;5087341;28;20553;-73
2023/04/13 04:05:21;;;;;;;30.00;15.10;;;4.70;99.90;;;;;;5080994;28;20200;-75
2023/04/13 04:07:47;;;;;;;21.70;12.90;;;4.70;99.90;;;;;;5080950;28;20608;-75
2023/04/13 04:10:13;;;;;;;21.90;14.53;;;4.70;99.90;;;;;;5095885;28;20184;-75
2023/04/13 04:12:38;;;;;;;20.27;13.00;;;4.60;99.90;;;;;;5088123;28;20203;-74
2023/04/13 04:15:05;;;;;;;22.53;13.30;;;4.50;99.90;;;;;;5088538;28;20197;-75
2023/04/13 04:17:31;;;;;;;18.30;11.80;;;4.60;99.90;;;;;;5096363;28;20174;-76
2023/04/13 04:19:56;;;;;;;17.13;13.30;;;4.60;99.90;;;;;;5101374;28;20411;-74
2023/04/13 04:22:28;;;;;;;25.67;14.63;;;4.60;99.90;;;;;;5116122;28;20269;-73
2023/04/13 04:24:57;;;;;;;26.43;13.07;;;4.60;99.90;;;;;;5107557;28;20208;-73
2023/04/13 04:27:25;;;;;;;22.67;14.40;;;4.70;99.90;;;;;;5096455;28;20408;-75
2023/04/13 04:29:51;;;;;;;22.93;13.60;;;4.70;99.90;;;;;;5095963;28;20399;-72
2023/04/13 04:32:18;;;;;;;19.40;13.57;;;4.70;99.90;;;;;;5080046;28;20434;-73
2023/04/13 04:34:45;;;;;;;17.57;12.47;;;4.60;99.90;;;;;;5075739;28;20964;-75
2023/04/13 04:37:12;;;;;;;15.30;12.10;;;4.60;99.90;;;;;;5075852;28;20407;-72
2023/04/13 04:39:43;;;;;;;19.60;13.50;;;4.60;99.90;;;;;;5075708;28;20454;-73
2023/04/13 04:42:09;;;;;;;22.33;14.20;;;4.60;99.90;;;;;;5075267;28;20419;-73
2023/04/13 04:44:36;;;;;;;21.93;13.53;;;4.70;99.90;;;;;;5075943;28;20854;-73
2023/04/13 04:47:05;;;;;;;16.57;11.57;;;4.70;99.90;;;;;;5075985;28;20465;-72
2023/04/13 04:49:32;;;;;;;19.40;13.13;;;4.70;99.90;;;;;;5090079;28;20934;-73
2023/04/13 04:51:58;;;;;;;20.37;11.97;;;4.70;99.90;;;;;;5074304;28;20421;-73
2023/04/13 04:54:25;;;;;;;18.60;12.57;;;4.70;99.90;;;;;;5082423;28;20490;-75
2023/04/13 04:56:51;;;;;;;16.60;10.90;;;4.70;99.90;;;;;;5086659;28;20494;-75
2023/04/13 04:59:18;;;;;;;15.90;11.57;;;4.70;99.90;;;;;;5077698;28;20424;-74
2023/04/13 05:01:44;;;;;;;18.27;10.93;;;4.70;99.90;;;;;;5087954;28;20863;-73
2023/04/13 05:04:10;;;;;;;17.20;11.40;;;4.70;99.90;;;;;;5081751;28;20439;-73
2023/04/13 05:06:40;;;;;;;21.47;11.90;;;4.70;99.90;;;;;;5077722;28;20457;-76
2023/04/13 05:09:06;;;;;;;20.80;11.40;;;4.70;99.90;;;;;;5082903;28;20498;-73
2023/04/13 05:11:32;;;;;;;16.60;11.20;;;4.80;99.90;;;;;;5094601;28;20406;-74
2023/04/13 05:13:59;;;;;;;16.13;11.60;;;4.80;99.90;;;;;;5095379;28;20403;-75
2023/04/13 05:16:29;;;;;;;13.13;9.43;;;4.80;99.90;;;;;;5095178;28;20958;-75
2023/04/13 05:18:55;;;;;;;17.17;9.03;;;4.90;99.90;;;;;;5080924;28;20408;-75
2023/04/13 05:21:21;;;;;;;15.50;9.50;;;4.90;99.90;;;;;;5094540;28;20400;-76
2023/04/13 05:23:47;;;;;;;18.90;9.40;;;5.00;99.90;;;;;;5094238;28;20525;-75
2023/04/13 05:26:14;;;;;;;13.80;8.93;;;5.10;99.90;;;;;;5088326;28;20435;-75
2023/04/13 05:28:40;;;;;;;16.43;9.53;;;5.20;99.90;;;;;;5083699;28;20170;-74
2023/04/13 05:31:07;;;;;;;11.20;8.60;;;5.20;99.90;;;;;;5093139;28;20427;-74
2023/04/13 05:33:34;;;;;;;13.33;7.97;;;5.30;99.90;;;;;;5093756;28;20979;-75
2023/04/13 05:36:00;;;;;;;12.70;8.93;;;5.30;99.90;;;;;;5075785;28;20809;-72
2023/04/13 05:38:26;;;;;;;16.20;9.77;;;5.40;99.90;;;;;;5074156;28;21004;-75
2023/04/13 05:40:52;;;;;;;13.00;7.77;;;5.40;99.90;;;;;;5073263;28;20514;-75
2023/04/13 05:43:19;;;;;;;17.43;8.90;;;5.40;99.90;;;;;;5074241;28;20188;-75
2023/04/13 05:45:45;;;;;;;12.80;7.90;;;5.40;99.90;;;;;;5085554;28;20872;-76
2023/04/13 05:48:11;;;;;;;14.03;9.17;;;5.40;99.90;;;;;;5073697;28;20426;-75
2023/04/13 05:50:36;;;;;;;12.53;8.20;;;5.40;99.90;;;;;;5084428;28;20834;-74
2023/04/13 05:53:04;;;;;;;13.73;8.57;;;5.40;99.90;;;;;;5074230;28;20192;-73
2023/04/13 05:55:31;;;;;;;11.90;8.30;;;5.50;99.90;;;;;;5067269;28;20461;-74
2023/04/13 05:57:56;;;;;;;10.00;7.30;;;5.50;99.90;;;;;;5094621;28;20479;-76
2023/04/13 06:00:22;;;;;;;13.07;9.37;;;5.60;99.90;;;;;;5093402;28;20434;-75
2023/04/13 06:02:49;;;;;;;11.97;7.20;;;5.70;99.90;;;;;;5092910;28;20420;-75
2023/04/13 06:05:16;;;;;;;14.63;9.00;;;5.70;99.90;;;;;;5094453;28;20406;-76
2023/04/13 06:07:45;;;;;;;22.57;8.80;;;5.70;99.90;;;;;;5094311;28;20780;-73
2023/04/13 06:10:15;;;;;;;15.80;8.37;;;5.80;99.90;;;;;;5093599;28;20431;-74
2023/04/13 06:12:42;;;;;;;9.70;7.33;;;5.80;99.90;;;;;;5094288;28;20453;-73
2023/04/13 06:15:08;;;;;;;12.50;8.30;;;5.90;99.90;;;;;;5094211;28;20864;-75
2023/04/13 06:17:34;;;;;;;11.80;8.30;;;5.90;99.90;;;;;;5092768;28;20484;-74
2023/04/13 06:20:01;;;;;;;15.77;7.97;;;6.00;99.90;;;;;;5080141;28;20424;-75
2023/04/13 06:22:27;;;;;;;12.27;8.13;;;6.10;99.90;;;;;;5093270;28;20947;-73
2023/04/13 06:24:52;;;;;;;13.03;7.40;;;6.20;99.90;;;;;;5092890;28;20427;-74
2023/04/13 06:27:18;;;;;;;13.20;8.37;;;6.30;99.90;;;;;;5094037;28;20876;-73
2023/04/13 06:29:44;;;;;;;9.53;7.20;;;6.40;99.90;;;;;;5093148;28;20238;-74
2023/04/13 06:32:11;;;;;;;13.97;7.90;;;6.40;99.90;;;;;;5092794;28;20194;-73
2023/04/13 06:34:37;;;;;;;10.67;7.37;;;6.40;99.90;;;;;;5093892;28;20439;-75
2023/04/13 06:37:03;;;;;;;14.47;7.03;;;6.50;99.90;;;;;;5093754;28;20396;-73
2023/04/13 06:39:30;;;;;;;10.90;7.90;;;6.60;99.90;;;;;;5093634;28;20415;-74
2023/04/13 06:41:56;;;;;;;10.57;7.30;;;6.70;99.90;;;;;;5092863;28;20422;-76
2023/04/13 06:44:23;;;;;;;11.00;7.00;;;6.80;99.90;;;;;;5079689;28;20402;-75
2023/04/13 06:46:49;;;;;;;13.33;7.80;;;6.90;99.90;;;;;;5073165;28;20438;-73
2023/04/13 06:49:15;;;;;;;12.53;6.63;;;7.00;99.90;;;;;;5073337;28;20425;-73
2023/04/13 06:51:40;;;;;;;11.13;7.50;;;7.00;99.90;;;;;;5072445;28;20158;-74
2023/04/13 06:54:06;;;;;;;7.83;6.20;;;7.00;99.90;;;;;;5073385;28;20165;-74
2023/04/13 06:56:32;;;;;;;7.43;5.77;;;7.10;99.90;;;;;;5081494;28;20232;-75
2023/04/13 06:59:00;;;;;;;10.27;6.53;;;7.10;99.90;;;;;;5093434;28;20623;-74
2023/04/13 07:01:28;;;;;;;8.03;6.83;;;7.10;96.10;;;;;;5092598;28;20245;-73
2023/04/13 07:03:54;;;;;;;7.90;6.60;;;7.10;86.80;;;;;;5093430;28;20741;-74
2023/04/13 07:06:21;;;;;;;10.10;6.13;;;7.20;79.10;;;;;;5093391;28;20382;-73
2023/04/13 07:08:46;;;;;;;8.07;5.97;;;7.20;79.00;;;;;;5075287;28;20641;-72
2023/04/13 07:11:13;;;;;;;7.40;5.83;;;7.30;71.80;;;;;;5087076;28;20441;-75
2023/04/13 07:13:39;;;;;;;12.30;5.87;;;7.30;61.20;;;;;;5071829;28;20276;-71
2023/04/13 07:16:07;;;;;;;9.40;6.30;;;7.40;50.30;;;;;;5055135;28;20533;-72
2023/04/13 07:18:34;;;;;;;6.63;4.50;;;7.60;48.30;;;;;;5072993;28;20163;-70
2023/04/13 07:21:00;;;;;;;12.53;5.70;;;7.60;30.60;;;;;;5054133;28;20770;-72
2023/04/13 07:23:26;;;;;;;6.20;5.07;;;7.70;13.50;;;;;;5072990;28;20401;-75
2023/04/13 07:25:52;;;;;;;9.10;5.60;;;7.80;5.50;;;;;;5079824;28;20921;-71
2023/04/13 07:28:17;;;;;;;9.20;6.37;;;7.80;1.00;;;;;;5093210;28;20378;-75
2023/04/13 07:30:44;;;;;;;10.87;6.70;;;7.90;1.00;;;;;;5092024;28;20196;-72
2023/04/13 07:33:11;;;;;;;4.97;4.60;;;8.00;1.00;;;;;;5092882;28;20190;-75
2023/04/13 07:35:37;;;;;;;6.87;5.30;;;8.10;1.00;;;;;;5092869;28;20449;-73
2023/04/13 07:38:03;;;;;;;7.07;4.90;;;8.30;1.00;;;;;;5093217;28;20739;-75
2023/04/13 07:40:29;;;;;;;7.07;5.23;;;8.40;1.00;;;;;;5091052;28;20407;-74
2023/04/13 07:42:55;;;;;;;5.20;4.77;;;8.40;1.00;;;;;;5092873;28;20391;-74
2023/04/13 07:45:21;;;;;;;7.33;5.20;;;8.50;1.00;;;;;;5092976;28;20373;-74
2023/04/13 07:47:47;;;;;;;6.20;4.67;;;8.50;1.00;;;;;;5074541;28;20414;-72
2023/04/13 07:50:14;;;;;;;6.90;4.57;;;8.40;1.00;;;;;;5092009;28;20173;-72
2023/04/13 07:52:39;;;;;;;5.70;3.90;;;8.50;1.00;;;;;;5092927;28;20395;-74
2023/04/13 07:55:06;;;;;;;4.97;4.57;;;8.40;1.00;;;;;;5091899;28;20459;-74
2023/04/13 07:57:32;;;;;;;8.87;4.50;;;8.50;1.00;;;;;;5092786;28;20166;-71
2023/04/13 07:59:58;;;;;;;11.03;4.87;;;8.60;1.00;;;;;;5092665;28;20485;-73
2023/04/13 08:02:24;;;;;;;9.90;5.13;;;8.60;1.00;;;;;;5092114;28;20190;-73
2023/04/13 08:04:51;;;;;;;8.10;4.90;;;8.70;1.00;;;;;;5093012;28;20634;-73
2023/04/13 08:07:17;;;;;;;4.30;4.00;;;8.70;1.00;;;;;;5092389;28;20880;-71
2023/04/13 08:09:47;;;;;;;7.60;3.83;;;8.70;1.00;;;;;;5080953;28;20407;-71
2023/04/13 08:12:13;;;;;;;5.37;4.87;;;8.70;1.00;;;;;;5071781;28;20529;-73
2023/04/13 08:14:38;;;;;;;7.60;5.00;;;8.70;1.00;;;;;;5072477;28;20513;-70
2023/04/13 08:17:04;;;;;;;6.80;4.50;;;8.70;1.00;;;;;;5072484;28;20202;-74
2023/04/13 08:19:31;;;;;;;10.67;5.50;;;8.60;1.00;;;;;;5072539;28;20296;-72
2023/04/13 08:21:57;;;;;;;9.90;6.40;;;8.70;1.00;;;;;;5071502;28;20393;-70
2023/04/13 08:24:24;;;;;;;8.27;5.80;;;8.70;1.00;;;;;;5053960;28;20939;-74
2023/04/13 08:26:53;;;;;;;7.97;6.00;;;8.80;1.00;;;;;;5075348;28;20432;-70
2023/04/13 08:29:23;;;;;;;11.43;5.47;;;8.80;99.90;;;;;;5074668;28;20399;-74
2023/04/13 08:31:49;;;;;;;6.70;5.10;;;8.90;99.90;;;;;;5074473;28;20418;-71
2023/04/13 08:34:17;;;;;;;9.40;6.33;;;9.00;99.90;;;;;;5057949;28;20402;-70
2023/04/13 08:36:44;;;;;;;9.97;8.53;;;9.00;99.90;;;;;;5075870;28;20426;-74
2023/04/13 08:39:10;;;;;;;5.00;4.60;;;9.10;99.90;;;;;;5075952;28;20509;-70
2023/04/13 08:41:37;;;;;;;5.40;4.23;;;9.10;99.90;;;;;;5074792;28;20873;-74
2023/04/13 08:44:05;;;;;;;5.70;4.17;;;9.20;99.90;;;;;;5074531;28;20408;-74
2023/04/13 08:46:42;;;;;;;7.43;4.40;;;9.30;99.90;;;;;;5075944;28;20458;-75
2023/04/13 08:49:10;;;;;;;5.00;4.50;;;9.40;99.90;;;;;;5075703;28;20381;-70
2023/04/13 08:51:36;;;;;;;5.87;4.10;;;9.50;99.90;;;;;;5074660;28;20425;-74
2023/04/13 08:54:02;;;;;;;4.47;4.07;;;9.60;99.90;;;;;;5075578;28;20459;-71
2023/04/13 08:56:29;;;;;;;3.20;3.00;;;9.60;99.90;;;;;;5075513;28;20913;-75
2023/04/13 08:58:59;;;;;;;3.70;3.40;;;9.70;99.90;;;;;;5057467;28;20185;-70
2023/04/13 09:01:26;;;;;;;3.40;2.70;;;9.60;99.90;;;;;;5073973;28;20414;-74
2023/04/13 09:04:08;;;;;;;8.10;4.13;;;9.60;99.90;;;;;;5075391;28;20389;-69
2023/04/13 09:06:39;;;;;;;3.40;3.10;;;9.70;99.90;;;;;;5075472;28;20403;-69
2023/04/13 09:09:13;;;;;;;4.70;3.30;;;9.70;99.90;;;;;;5075315;28;20472;-70
2023/04/13 09:11:40;;;;;;;3.37;3.07;;;9.70;99.90;;;;;;5074190;28;20367;-74
2023/04/13 09:14:07;;;;;;;3.90;3.27;;;9.80;99.90;;;;;;5077240;28;20830;-74
2023/04/13 09:16:41;;;;;;;3.13;2.93;;;9.80;99.90;;;;;;5094845;28;20431;-74
2023/04/13 09:19:08;;;;;;;3.80;3.47;;;9.90;99.90;;;;;;5095317;28;20435;-70
2023/04/13 09:21:38;;;;;;;3.20;3.00;;;10.00;99.90;;;;;;5094359;28;20449;-70
2023/04/13 09:24:05;;;;;;;3.30;3.00;;;10.00;99.90;;;;;;5095259;28;20354;-72
2023/04/13 09:26:46;;;;;;;3.03;2.80;;;9.90;99.90;;;;;;5094230;28;20500;-74
2023/04/13 09:29:17;;;;;;;3.43;3.13;;;9.80;99.90;;;;;;5095434;28;20373;-75
2023/04/13 09:31:44;;;;;;;3.00;2.70;;;9.80;99.90;;;;;;5094124;28;20430;-70
2023/04/13 09:34:10;;;;;;;3.40;2.90;;;9.70;99.90;;;;;;5094453;28;20504;-73
2023/04/13 09:36:36;;;;;;;3.07;2.87;;;9.80;99.90;;;;;;5093971;28;20454;-70
2023/04/13 09:39:03;;;;;;;3.40;3.10;;;9.80;99.90;;;;;;5094957;28;20886;-74
2023/04/13 09:41:35;;;;;;;2.67;2.47;;;9.80;99.90;;;;;;5077243;28;20432;-73
2023/04/13 09:44:23;;;;;;;2.80;2.60;;;9.80;99.90;;;;;;5074715;28;20421;-72
2023/04/13 09:46:59;;;;;;;3.20;2.90;;;9.80;99.90;;;;;;5074606;28;20500;-74
2023/04/13 09:49:35;;;;;;;3.20;2.90;;;9.90;99.90;;;;;;5074324;28;20386;-69
2023/04/13 09:52:01;;;;;;;2.60;2.40;;;9.90;99.90;;;;;;5073542;28;20480;-70
2023/04/13 09:54:27;;;;;;;2.83;2.63;;;10.00;99.90;;;;;;5073773;28;20469;-73
2023/04/13 09:56:55;;;;;;;3.00;2.37;;;10.00;99.90;;;;;;5094689;28;20168;-70
2023/04/13 09:59:24;;;;;;;3.87;3.57;;;10.10;99.90;;;;;;5093343;28;20385;-73
2023/04/13 10:01:50;;;;;;;3.40;3.10;;;10.10;99.90;;;;;;5093751;28;20919;-73
2023/04/13 10:04:16;;;;;;;3.17;2.70;;;10.20;99.90;;;;;;5076533;28;20440;-71
2023/04/13 10:06:43;;;;;;;2.87;2.70;;;10.20;99.90;;;;;;5076357;28;20505;-73
2023/04/13 10:09:09;;;;;;;3.17;2.67;;;10.20;99.90;;;;;;5093254;28;20208;-70
2023/04/13 10:11:48;;;;;;;5.53;4.90;;;10.20;99.90;;;;;;5092848;28;20958;-70
2023/04/13 10:14:20;;;;;;;2.93;2.73;;;10.20;99.90;;;;;;5094165;28;20463;-70
2023/04/13 10:17:15;;;;;;;4.57;2.53;;;10.20;99.90;;;;;;5094109;28;20429;-71
2023/04/13 10:20:09;;;;;;;3.13;2.93;;;10.30;99.90;;;;;;5086727;28;20433;-74
2023/04/13 10:22:36;;;;;;;3.03;2.83;;;10.80;99.90;;;;;;5093896;28;20929;-71
2023/04/13 10:25:05;;;;;;;4.27;2.97;;;10.70;99.90;;;;;;5082574;28;20456;-73
2023/04/13 10:27:31;;;;;;;3.47;2.80;;;10.50;99.90;;;;;;5073366;28;20738;-73
2023/04/13 10:29:59;;;;;;;8.53;2.90;;;10.30;99.90;;;;;;5073281;28;20390;-73
2023/04/13 10:32:27;;;;;;;4.20;3.17;;;10.20;99.90;;;;;;5072994;28;20395;-71
2023/04/13 10:34:54;;;;;;;3.20;3.00;;;10.00;99.90;;;;;;5073380;28;20417;-74
2023/04/13 10:37:23;;;;;;;3.23;2.80;;;9.90;99.90;;;;;;5055681;28;20387;-72
2023/04/13 10:39:59;;;;;;;3.00;2.70;;;9.90;99.90;;;;;;5083599;28;20497;-72
2023/04/13 10:42:25;;;;;;;3.17;2.90;;;10.00;99.90;;;;;;5092976;28;20417;-74
2023/04/13 10:44:53;;;;;;;3.13;2.93;;;10.00;99.90;;;;;;5093256;28;20858;-73
2023/04/13 10:47:20;;;;;;;3.60;3.10;;;10.10;99.90;;;;;;5093437;28;20172;-73
2023/04/13 10:49:48;;;;;;;2.57;2.37;;;10.50;99.90;;;;;;5093544;28;20395;-73
2023/04/13 10:52:23;;;;;;;2.97;2.70;;;11.30;99.90;;;;;;5073723;28;20508;-71
2023/04/13 10:54:55;;;;;;;2.70;2.50;;;12.00;92.80;;;;;;5093416;28;20496;-74
2023/04/13 10:57:21;;;;;;;2.93;2.70;;;12.60;90.70;;;;;;5093438;28;20431;-72
2023/04/13 11:00:00;;;;;;;2.93;2.43;;;12.70;57.50;;;;;;5093587;28;20430;-71
2023/04/13 11:02:30;;;;;;;3.20;2.90;;;13.20;42.80;;;;;;5074474;28;20193;-72
2023/04/13 11:05:15;;;;;;;2.80;2.60;;;13.60;3.20;;;;;;5093109;28;20407;-72
2023/04/13 11:07:44;;;;;;;3.77;2.90;;;13.20;1.00;;;;;;5093096;28;20449;-71
2023/04/13 11:10:10;;;;;;;3.00;2.80;;;13.00;1.00;;;;;;5092418;28;20399;-73
2023/04/13 11:12:36;;;;;;;2.90;2.60;;;12.80;1.00;;;;;;5075006;28;20796;-72
2023/04/13 11:15:01;;;;;;;4.10;3.70;;;12.70;1.00;;;;;;5093116;28;20447;-71
2023/04/13 11:17:27;;;;;;;5.20;3.27;;;12.50;1.00;;;;;;5075200;28;20548;-71
2023/04/13 11:19:54;;;;;;;3.40;3.10;;;12.30;1.00;;;;;;5091656;28;20400;-73
2023/04/13 11:22:22;;;;;;;4.10;2.97;;;12.10;1.00;;;;;;5092556;28;20191;-71
2023/04/13 11:24:49;;;;;;;3.33;3.03;;;12.10;1.00;;;;;;5092975;28;20396;-72
2023/04/13 11:27:22;;;;;;;4.07;3.30;;;12.30;1.00;;;;;;5092487;28;20442;-73
2023/04/13 11:30:07;;;;;;;3.00;2.80;;;13.20;1.00;;;;;;5093007;28;20410;-73
2023/04/13 11:32:35;;;;;;;4.37;2.60;;;13.30;1.00;;;;;;5092917;28;20423;-71
2023/04/13 11:35:20;;;;;;;4.03;3.60;;;13.10;1.00;;;;;;5092051;28;20958;-71
2023/04/13 11:37:51;;;;;;;3.40;3.10;;;13.10;1.00;;;;;;5093262;28;20429;-73
2023/04/13 11:40:21;;;;;;;3.23;3.03;;;12.80;1.00;;;;;;5092209;28;20427;-73
2023/04/13 11:42:50;;;;;;;3.63;3.43;;;12.70;1.00;;;;;;5092928;28;20443;-71
2023/04/13 11:45:16;;;;;;;4.93;3.83;;;12.50;1.00;;;;;;5092616;28;20403;-72
2023/04/13 11:47:44;;;;;;;3.40;3.20;;;12.40;1.00;;;;;;5092533;28;20400;-72
2023/04/13 11:50:11;;;;;;;3.63;3.33;;;12.30;1.00;;;;;;5091129;28;20434;-71
2023/04/13 11:52:39;;;;;;;2.60;2.40;;;12.20;1.00;;;;;;5087582;28;20855;-71
2023/04/13 11:55:06;;;;;;;4.13;2.37;;;13.10;1.00;;;;;;5072505;28;20440;-72
2023/04/13 11:57:33;;;;;;;3.20;2.13;;;14.20;1.00;;;;;;5072523;28;20796;-72
2023/04/13 11:59:59;;;;;;;3.53;2.30;;;15.00;1.00;;;;;;5073340;28;21010;-70
2023/04/13 12:02:31;;;;;;;2.20;2.00;;;15.90;1.00;;;;;;5084658;28;20457;-72
2023/04/13 12:04:57;;;;;;;4.07;1.77;;;16.50;1.00;;;;;;5096219;28;20400;-71
2023/04/13 12:07:26;;;;;;;2.37;2.07;;;16.70;1.00;;;;;;5096431;28;20427;-72
2023/04/13 12:09:56;;;;;;;1.77;1.67;;;16.60;1.00;;;;;;5106065;28;20429;-72
2023/04/13 12:12:23;;;;;;;2.60;1.90;;;16.60;1.00;;;;;;5075445;28;20948;-72
2023/04/13 12:14:53;;;;;;;2.93;2.13;;;16.50;1.00;;;;;;5076256;28;20444;-72
2023/04/13 12:17:20;;;;;;;2.13;2.03;;;16.20;1.00;;;;;;5076099;28;20399;-72
2023/04/13 12:19:53;;;;;;;2.30;2.10;;;15.90;1.00;;;;;;5091772;28;20400;-72
2023/04/13 12:22:20;;;;;;;2.23;2.13;;;15.90;1.00;;;;;;5077298;28;20791;-72
2023/04/13 12:25:24;;;;;;;4.50;1.73;;;15.90;1.00;;;;;;5095828;28;20406;-72
2023/04/13 12:27:51;;;;;;;3.67;3.07;;;16.10;1.00;;;;;;5085221;28;20487;-72
2023/04/13 12:30:19;;;;;;;2.20;2.10;;;16.20;1.00;;;;;;5075066;28;20420;-70
2023/04/13 12:32:47;;;;;;;2.30;2.10;;;15.90;1.00;;;;;;5082114;28;20501;-71
2023/04/13 12:35:39;;;;;;;3.57;2.30;;;15.50;1.00;;;;;;5095339;28;20473;-71
2023/04/13 12:38:15;;;;;;;3.60;2.40;;;15.40;1.00;;;;;;5087006;28;20466;-72
2023/04/13 12:40:44;;;;;;;2.47;2.27;;;15.70;1.00;;;;;;5095185;28;20396;-72
2023/04/13 12:43:10;;;;;;;2.53;2.33;;;16.50;1.00;;;;;;5094544;28;20777;-71
2023/04/13 12:45:36;;;;;;;1.83;1.50;;;16.70;1.00;;;;;;5095707;28;20452;-71
2023/04/13 12:48:02;;;;;;;4.53;2.43;;;16.70;1.00;;;;;;5077417;28;20223;-70
2023/04/13 12:50:28;;;;;;;2.30;1.90;;;16.40;1.00;;;;;;5095191;28;20614;-70
2023/04/13 12:52:54;;;;;;;2.70;2.13;;;16.00;1.00;;;;;;5095734;28;20419;-70
2023/04/13 12:55:20;;;;;;;1.73;1.63;;;16.10;1.00;;;;;;5095266;28;20523;-70